Bellevue, Iowa
Current Conditions -  °F | °C
As of 8:53 PM on Tuesday 25 Nov 2014 (Local Time) from KDBQ Reporting Station
Clear Clear  
Wind Chill:   Ceiling: Unl
Heat Index: 13°   Visibility: 10mi
Dew Point: 11°   Wind: 6mph
Humidity: 92%   Direction: 180°S
Pressure: 30.1"   Gusts: NA
Location:  42.26°N, 90.42°W
Report Text: KDBQ 260253Z AUTO 18005KT 10SM CLR M11/M12 A3010 RMK AO2 SLP215 T11061117 53001
Loading
Personal Weather Stations






























Interactive Weather Map New forecast layout! Learn more

10-Day Weather Forecast

Advertisements
Track Severe Weather on mobile